Tri Cities, Washington
Current Conditions -  °F | °C
As of 2:53 AM on Sunday 23 Nov 2014 (Local Time) from KPSC Reporting Station
Clear Clear  
Wind Chill: 37°   Ceiling: Unl
Heat Index: 44°   Visibility: 10mi
Dew Point: 36°   Wind: 14mph
Humidity: 73%   Direction: 240°WSW
Pressure: 30.18"   Gusts: NA
Location:  46.2289°N, 119.099°W
Report Text: KPSC 231053Z AUTO 24012KT 10SM CLR 07/02 A3018 RMK AO2 SLP222 T00670022
Loading
Personal Weather Stations






























Interactive Weather Map New forecast layout! Learn more

10-Day Weather Forecast

Advertisements
Track Severe Weather on mobile